Weather at John Wayne Airport-Orange County Airport

Public forecast

Using degrees Fahrenheit for public forecast. Weather courtesy of forecast.io.

Current aviation weather report (METAR) for John Wayne Airport-Orange County Airport

Report is more than 6 hours old.

2022/11/14 14:53 (retrieved 2 years ago)

KSNA 141453Z 00000KT 10SM CLR 11/04 A3010 RMK AO2 SLP193 T01060044 53005

Aviation forecast (TAF) for John Wayne Airport-Orange County Airport

Forecast is more than 12 hours old.

2023/02/22 18:42 (retrieved 1 year ago)

TAF KSNA 221739Z 2218/2318 26014G24KT P6SM FEW040 FEW090 FM230200 26010G17KT P6SM VCSH SCT030 SCT040 FM230600 26009G16KT P6SM VCSH SCT025 BKN035 FM231200 13012KT P6SM VCSH SCT025 BKN035